Time;durP1;ratioP1;P1;durP2;ratioP2;P2;SDS_P1;SDS_P2;PMS_P1;PMS_P2;Temp;Humidity;BMP_temperature;BMP_pressure;BME280_temperature;BME280_humidity;BME280_pressure;Samples;Min_cycle;Max_cycle;Signal;HPM_P1;HPM_P2
2023/10/19 00:03:46;;;;;;;50.67;32.00;;;;;;;;;;10042744;28;20046;-70
2023/10/19 00:08:41;;;;;;;40.83;29.20;;;;;;;;;;10044117;28;20054;-70
2023/10/19 00:13:38;;;;;;;44.92;32.30;;;;;;;;;;10045098;28;20045;-67
2023/10/19 00:18:34;;;;;;;50.03;31.90;;;;;;;;;;10039281;28;20099;-68
2023/10/19 00:23:28;;;;;;;43.83;29.92;;;;;;;;;;10043094;28;20106;-67
2023/10/19 00:28:22;;;;;;;49.45;34.10;;;;;;;;;;10049891;28;20049;-69
2023/10/19 00:33:21;;;;;;;56.25;35.78;;;;;;;;;;10044427;28;20041;-68
2023/10/19 00:43:36;;;;;;;61.83;36.45;;;;;;;;;;10070718;28;20463;-71
2023/10/19 00:48:29;;;;;;;58.45;35.53;;;;;;;;;;10048348;28;20038;-66
2023/10/19 00:53:22;;;;;;;48.88;32.30;;;;;;;;;;10052521;28;20041;-68
2023/10/19 00:58:17;;;;;;;47.83;29.95;;;;;;;;;;10045507;28;20037;-68
2023/10/19 01:03:11;;;;;;;38.13;27.48;;;;;;;;;;10048182;28;20077;-68
2023/10/19 01:08:14;;;;;;;40.10;27.02;;;;;;;;;;10049341;28;20375;-68
2023/10/19 01:13:06;;;;;;;43.50;28.58;;;;;;;;;;10043103;28;20468;-68
2023/10/19 01:17:59;;;;;;;48.00;30.88;;;;;;;;;;10038944;28;20070;-68
2023/10/19 01:23:05;;;;;;;39.85;27.98;;;;;;;;;;10049989;28;20045;-68
2023/10/19 01:27:57;;;;;;;44.53;27.98;;;;;;;;;;10043878;28;20074;-68
2023/10/19 01:32:50;;;;;;;38.95;25.75;;;;;;;;;;10039790;28;20046;-67
2023/10/19 01:37:42;;;;;;;39.42;25.35;;;;;;;;;;10039041;28;20037;-67
2023/10/19 01:42:34;;;;;;;33.28;24.95;;;;;;;;;;10035644;28;20050;-67
2023/10/19 01:47:27;;;;;;;38.60;25.02;;;;;;;;;;10038306;28;20056;-68
2023/10/19 01:52:24;;;;;;;46.40;26.88;;;;;;;;;;10043657;28;20088;-68
2023/10/19 01:57:16;;;;;;;34.97;27.15;;;;;;;;;;10059348;28;20427;-67
2023/10/19 02:02:09;;;;;;;47.28;25.70;;;;;;;;;;10042946;28;20388;-67
2023/10/19 02:07:02;;;;;;;54.00;27.33;;;;;;;;;;10048114;28;20652;-67
2023/10/19 02:11:57;;;;;;;54.88;28.17;;;;;;;;;;10053475;28;20050;-67
2023/10/19 02:16:56;;;;;;;52.58;28.13;;;;;;;;;;10054041;28;20045;-67
2023/10/19 02:22:04;;;;;;;51.10;26.38;;;;;;;;;;10040146;28;20045;-69
2023/10/19 02:26:57;;;;;;;64.85;27.85;;;;;;;;;;10057449;28;20050;-70
2023/10/19 02:31:53;;;;;;;35.05;23.45;;;;;;;;;;10042616;28;20045;-69
2023/10/19 02:36:47;;;;;;;37.47;24.15;;;;;;;;;;10047507;28;20117;-70
2023/10/19 02:41:42;;;;;;;44.15;25.52;;;;;;;;;;10042815;28;20468;-70
2023/10/19 02:46:34;;;;;;;32.53;22.90;;;;;;;;;;10058813;28;20104;-65
2023/10/19 02:51:26;;;;;;;42.17;25.30;;;;;;;;;;10040249;28;20073;-68
2023/10/19 02:56:19;;;;;;;49.80;25.88;;;;;;;;;;10043813;28;20463;-67
2023/10/19 03:01:21;;;;;;;31.83;21.63;;;;;;;;;;10044375;28;20472;-67
2023/10/19 03:06:13;;;;;;;28.63;19.23;;;;;;;;;;10058019;28;20050;-68
2023/10/19 03:11:07;;;;;;;29.13;20.52;;;;;;;;;;10041852;28;20427;-67
2023/10/19 03:16:00;;;;;;;33.17;20.65;;;;;;;;;;10049196;28;20468;-70
2023/10/19 03:20:52;;;;;;;28.90;20.40;;;;;;;;;;10043176;28;20042;-71
2023/10/19 03:26:22;;;;;;;29.23;20.90;;;;;;;;;;10041751;28;20114;-69
2023/10/19 03:31:04;;;;;;;30.20;21.60;;;;;;;;;;10045036;28;20065;-70
2023/10/19 03:35:56;;;;;;;32.97;23.25;;;;;;;;;;10040346;28;20129;-69
2023/10/19 03:40:52;;;;;;;34.90;22.85;;;;;;;;;;10038112;28;20056;-68
2023/10/19 03:45:52;;;;;;;52.08;29.48;;;;;;;;;;10040857;28;20064;-66
2023/10/19 03:50:44;;;;;;;65.70;28.17;;;;;;;;;;10048018;28;20049;-68
2023/10/19 03:55:43;;;;;;;78.28;29.42;;;;;;;;;;10044641;28;20107;-67
2023/10/19 04:00:35;;;;;;;78.05;30.77;;;;;;;;;;10036513;28;20038;-67
2023/10/19 04:05:28;;;;;;;76.28;29.45;;;;;;;;;;10042053;28;20395;-68
2023/10/19 04:10:30;;;;;;;93.95;33.67;;;;;;;;;;10043997;28;20073;-67
2023/10/19 04:15:22;;;;;;;89.18;31.00;;;;;;;;;;10037671;28;20107;-68
2023/10/19 04:25:08;;;;;;;83.55;31.13;;;;;;;;;;10041991;28;20057;-68
2023/10/19 04:30:00;;;;;;;96.68;32.97;;;;;;;;;;10036168;28;20065;-71
2023/10/19 04:34:53;;;;;;;92.03;30.58;;;;;;;;;;10040206;28;20050;-68
2023/10/19 04:39:46;;;;;;;148.65;35.15;;;;;;;;;;10064073;28;20512;-68
2023/10/19 04:44:38;;;;;;;85.95;29.95;;;;;;;;;;10062333;28;20077;-67
2023/10/19 04:49:29;;;;;;;142.70;34.30;;;;;;;;;;10063226;28;20037;-69
2023/10/19 04:54:21;;;;;;;80.13;31.10;;;;;;;;;;10064950;28;20129;-69
2023/10/19 04:59:13;;;;;;;81.22;29.58;;;;;;;;;;10063519;28;20040;-69
2023/10/19 05:04:05;;;;;;;86.40;31.90;;;;;;;;;;10061839;28;20061;-68
2023/10/19 05:08:57;;;;;;;70.65;29.17;;;;;;;;;;10064584;28;20099;-68
2023/10/19 05:13:49;;;;;;;57.35;28.92;;;;;;;;;;10063581;28;20045;-69
2023/10/19 05:18:41;;;;;;;43.00;25.75;;;;;;;;;;10062849;28;20046;-68
2023/10/19 05:23:33;;;;;;;52.35;28.60;;;;;;;;;;10068843;28;20046;-69
2023/10/19 05:28:25;;;;;;;52.63;27.10;;;;;;;;;;10071393;28;20053;-68
2023/10/19 05:33:20;;;;;;;50.17;28.67;;;;;;;;;;10069506;28;20033;-69
2023/10/19 05:38:12;;;;;;;55.85;30.00;;;;;;;;;;10069074;28;20042;-69
2023/10/19 05:43:05;;;;;;;48.17;27.05;;;;;;;;;;10063085;28;20325;-71
2023/10/19 05:47:57;;;;;;;48.72;27.10;;;;;;;;;;10043021;28;20049;-71
2023/10/19 05:52:49;;;;;;;49.50;28.27;;;;;;;;;;10040825;28;20045;-71
2023/10/19 05:57:41;;;;;;;45.10;25.52;;;;;;;;;;10039800;28;20049;-70
2023/10/19 06:02:34;;;;;;;50.28;27.45;;;;;;;;;;10043492;28;20045;-70
2023/10/19 06:07:27;;;;;;;43.63;28.33;;;;;;;;;;10041144;28;20542;-70
2023/10/19 06:12:19;;;;;;;47.72;27.25;;;;;;;;;;10042620;28;20136;-73
2023/10/19 06:17:13;;;;;;;50.80;28.67;;;;;;;;;;10039057;28;20494;-71
2023/10/19 06:22:05;;;;;;;45.45;27.45;;;;;;;;;;10050025;28;20049;-71
2023/10/19 06:26:57;;;;;;;56.90;29.77;;;;;;;;;;10042944;28;20045;-72
2023/10/19 06:31:49;;;;;;;37.80;24.85;;;;;;;;;;10040456;28;20450;-70
2023/10/19 06:36:40;;;;;;;43.92;25.98;;;;;;;;;;10038509;28;20053;-69
2023/10/19 06:41:32;;;;;;;60.72;29.00;;;;;;;;;;10042924;28;20141;-71
2023/10/19 06:46:24;;;;;;;95.57;32.90;;;;;;;;;;10040180;28;20425;-71
2023/10/19 06:51:16;;;;;;;68.57;27.08;;;;;;;;;;10039998;28;20046;-71
2023/10/19 06:56:08;;;;;;;41.08;24.67;;;;;;;;;;10040026;28;20141;-71
2023/10/19 07:01:05;;;;;;;39.58;24.27;;;;;;;;;;10041090;28;20052;-71
2023/10/19 07:05:58;;;;;;;39.13;23.88;;;;;;;;;;10043119;28;20092;-68
2023/10/19 07:10:50;;;;;;;42.13;24.05;;;;;;;;;;10040018;28;20050;-70
2023/10/19 07:15:44;;;;;;;39.33;23.33;;;;;;;;;;10037932;28;20042;-70
2023/10/19 07:20:38;;;;;;;37.63;24.10;;;;;;;;;;10046834;28;20045;-70
2023/10/19 07:25:31;;;;;;;35.17;21.55;;;;;;;;;;10041376;28;20472;-70
2023/10/19 07:30:26;;;;;;;40.97;23.63;;;;;;;;;;10042218;28;20046;-71
2023/10/19 07:35:19;;;;;;;46.53;28.65;;;;;;;;;;10041273;28;20078;-71
2023/10/19 07:40:13;;;;;;;39.15;24.60;;;;;;;;;;10038825;28;20042;-70
2023/10/19 07:45:11;;;;;;;38.40;23.23;;;;;;;;;;10036896;28;20145;-70
2023/10/19 07:50:03;;;;;;;40.72;25.60;;;;;;;;;;10040861;28;20045;-70
2023/10/19 07:54:55;;;;;;;42.38;25.10;;;;;;;;;;10041741;28;20048;-70
2023/10/19 07:59:47;;;;;;;36.88;24.98;;;;;;;;;;10037921;28;20103;-70
2023/10/19 08:04:39;;;;;;;35.20;22.90;;;;;;;;;;10038307;28;20108;-70
2023/10/19 08:09:35;;;;;;;35.67;20.48;;;;;;;;;;10037823;28;20037;-70
2023/10/19 08:14:27;;;;;;;29.00;18.95;;;;;;;;;;10062016;28;20523;-69
2023/10/19 08:19:19;;;;;;;29.20;18.75;;;;;;;;;;10037620;28;20046;-70
2023/10/19 08:24:13;;;;;;;30.98;20.58;;;;;;;;;;10043505;28;20103;-70
2023/10/19 08:29:12;;;;;;;44.58;26.73;;;;;;;;;;10034604;28;20052;-70
2023/10/19 08:34:04;;;;;;;;;;;;;;;;;;10038536;28;20124;-70
2023/10/19 08:38:56;;;;;;;40.75;25.38;;;;;;;;;;10036672;28;19956;-70
2023/10/19 08:43:48;;;;;;;32.70;22.95;;;;;;;;;;10039823;28;20049;-69
2023/10/19 08:48:41;;;;;;;28.60;19.55;;;;;;;;;;10038870;28;20053;-70
2023/10/19 08:53:39;;;;;;;29.63;20.40;;;;;;;;;;10051518;28;20048;-70
2023/10/19 08:58:31;;;;;;;25.77;18.02;;;;;;;;;;10036282;28;20140;-69
2023/10/19 09:03:26;;;;;;;25.27;18.55;;;;;;;;;;10034915;28;20054;-71
2023/10/19 09:08:19;;;;;;;22.70;16.40;;;;;;;;;;10038046;28;20049;-70
2023/10/19 09:13:14;;;;;;;27.42;18.80;;;;;;;;;;10030614;28;20911;-70
2023/10/19 09:18:14;;;;;;;26.13;17.42;;;;;;;;;;10035179;28;20412;-69
2023/10/19 09:23:07;;;;;;;20.45;14.98;;;;;;;;;;10031445;28;20045;-69
2023/10/19 09:27:59;;;;;;;19.40;13.05;;;;;;;;;;10028980;28;20054;-70
2023/10/19 09:32:53;;;;;;;21.60;13.65;;;;;;;;;;10031640;28;20046;-70
2023/10/19 09:37:45;;;;;;;23.15;14.93;;;;;;;;;;10052557;28;20074;-71
2023/10/19 09:42:37;;;;;;;22.55;14.77;;;;;;;;;;10034420;28;20133;-70
2023/10/19 09:47:39;;;;;;;25.20;16.50;;;;;;;;;;10051051;28;20076;-70
2023/10/19 09:52:31;;;;;;;19.85;12.98;;;;;;;;;;10041261;28;20370;-71
2023/10/19 09:57:32;;;;;;;22.17;17.08;;;;;;;;;;10032818;28;20133;-71
2023/10/19 10:02:24;;;;;;;19.75;14.82;;;;;;;;;;10028676;28;20360;-71
2023/10/19 10:07:18;;;;;;;20.17;14.57;;;;;;;;;;10037727;28;20137;-70
2023/10/19 10:12:30;;;;;;;19.42;14.35;;;;;;;;;;10041320;28;20769;-71
2023/10/19 10:17:22;;;;;;;19.88;14.95;;;;;;;;;;10041485;28;20049;-71
2023/10/19 10:22:16;;;;;;;22.52;16.35;;;;;;;;;;10046774;28;20046;-70
2023/10/19 10:27:09;;;;;;;27.95;18.80;;;;;;;;;;10041410;28;20141;-71
2023/10/19 10:32:02;;;;;;;21.63;14.57;;;;;;;;;;10040226;28;20046;-71
2023/10/19 10:37:02;;;;;;;17.75;12.93;;;;;;;;;;10053684;28;20088;-70
2023/10/19 10:41:58;;;;;;;19.20;13.23;;;;;;;;;;10036698;28;20075;-70
2023/10/19 10:46:50;;;;;;;19.30;11.23;;;;;;;;;;10043093;28;20058;-70
2023/10/19 10:51:42;;;;;;;17.52;11.85;;;;;;;;;;10040161;28;20181;-71
2023/10/19 10:56:40;;;;;;;17.58;11.88;;;;;;;;;;10040286;28;20038;-71
2023/10/19 11:01:32;;;;;;;24.98;17.85;;;;;;;;;;10039542;28;20042;-72
2023/10/19 11:06:25;;;;;;;24.70;17.65;;;;;;;;;;10038759;28;20467;-71
2023/10/19 11:11:17;;;;;;;30.05;18.63;;;;;;;;;;10039756;28;20056;-71
2023/10/19 11:16:09;;;;;;;19.15;13.65;;;;;;;;;;10038302;28;20053;-71
2023/10/19 11:21:07;;;;;;;19.85;12.68;;;;;;;;;;10053844;28;20061;-71
2023/10/19 11:25:59;;;;;;;16.92;13.02;;;;;;;;;;10043806;28;20054;-71
2023/10/19 11:30:51;;;;;;;16.02;11.35;;;;;;;;;;10048109;28;20166;-71
2023/10/19 11:35:43;;;;;;;29.98;15.95;;;;;;;;;;10045283;28;20037;-70
2023/10/19 11:40:35;;;;;;;22.40;13.85;;;;;;;;;;10039679;28;20046;-71
2023/10/19 11:45:28;;;;;;;16.17;11.52;;;;;;;;;;10036385;28;20057;-71
2023/10/19 11:50:21;;;;;;;19.63;11.88;;;;;;;;;;10033813;28;20038;-72
2023/10/19 11:55:15;;;;;;;16.00;11.70;;;;;;;;;;10042837;28;20096;-73
2023/10/19 12:00:13;;;;;;;14.32;11.45;;;;;;;;;;10040503;28;20053;-73
2023/10/19 12:05:09;;;;;;;14.75;10.15;;;;;;;;;;10035989;28;20146;-71
2023/10/19 12:10:03;;;;;;;16.73;11.95;;;;;;;;;;10037580;28;20091;-72
2023/10/19 12:14:55;;;;;;;17.38;12.48;;;;;;;;;;10045190;28;20046;-72
2023/10/19 12:19:47;;;;;;;19.08;13.60;;;;;;;;;;10036912;28;20042;-72
2023/10/19 12:24:38;;;;;;;18.15;12.27;;;;;;;;;;10035905;28;20072;-72
2023/10/19 12:29:31;;;;;;;16.60;12.05;;;;;;;;;;10040561;28;20129;-72
2023/10/19 12:34:23;;;;;;;17.83;13.52;;;;;;;;;;10042622;28;20368;-72
2023/10/19 12:39:35;;;;;;;25.05;16.48;;;;;;;;;;10045261;28;20050;-72
2023/10/19 12:44:38;;;;;;;21.20;15.73;;;;;;;;;;10046227;28;20045;-72
2023/10/19 12:49:31;;;;;;;19.85;13.43;;;;;;;;;;10043696;28;20153;-72
2023/10/19 12:54:23;;;;;;;23.08;15.60;;;;;;;;;;10035059;28;20064;-71
2023/10/19 12:59:17;;;;;;;21.63;13.85;;;;;;;;;;10034880;28;20389;-69
2023/10/19 13:04:18;;;;;;;20.33;14.18;;;;;;;;;;10036584;28;20054;-69
2023/10/19 13:09:11;;;;;;;21.80;14.05;;;;;;;;;;10036164;28;20104;-67
2023/10/19 13:14:06;;;;;;;23.33;13.48;;;;;;;;;;10035268;28;20042;-69
2023/10/19 13:18:58;;;;;;;17.45;12.23;;;;;;;;;;10037486;28;20115;-67
2023/10/19 13:23:50;;;;;;;20.35;12.10;;;;;;;;;;10044895;28;20500;-68
2023/10/19 13:28:43;;;;;;;19.50;13.02;;;;;;;;;;10036542;28;20045;-67
2023/10/19 13:33:35;;;;;;;21.42;14.25;;;;;;;;;;10036433;28;20064;-69
2023/10/19 13:38:28;;;;;;;24.15;14.98;;;;;;;;;;10035536;28;20868;-67
2023/10/19 13:43:21;;;;;;;18.55;13.45;;;;;;;;;;10041765;28;20073;-67
2023/10/19 13:48:14;;;;;;;23.10;14.27;;;;;;;;;;10041896;28;20050;-67
2023/10/19 13:53:06;;;;;;;24.02;16.10;;;;;;;;;;10043726;28;20357;-67
2023/10/19 13:57:57;;;;;;;22.88;15.43;;;;;;;;;;10043099;28;20574;-69
2023/10/19 14:02:53;;;;;;;20.75;13.52;;;;;;;;;;10046728;28;20116;-67
2023/10/19 14:07:48;;;;;;;24.27;14.70;;;;;;;;;;10053080;28;20141;-68
2023/10/19 14:12:43;;;;;;;21.40;15.27;;;;;;;;;;10056269;28;20037;-68
2023/10/19 14:17:35;;;;;;;23.95;14.63;;;;;;;;;;10045031;28;20050;-68
2023/10/19 14:22:27;;;;;;;24.55;16.65;;;;;;;;;;10045240;28;20085;-67
2023/10/19 14:27:19;;;;;;;23.65;17.02;;;;;;;;;;10039057;28;20045;-66
2023/10/19 14:32:11;;;;;;;21.40;16.42;;;;;;;;;;10054588;28;20052;-69
2023/10/19 14:37:03;;;;;;;25.23;16.70;;;;;;;;;;10050456;28;20077;-70
2023/10/19 14:41:56;;;;;;;24.13;16.40;;;;;;;;;;10041435;28;20499;-70
2023/10/19 14:46:47;;;;;;;24.27;16.52;;;;;;;;;;10043908;28;20093;-69
2023/10/19 14:51:39;;;;;;;27.92;17.45;;;;;;;;;;10048559;28;20034;-71
2023/10/19 14:56:32;;;;;;;20.88;15.25;;;;;;;;;;10037411;28;20460;-70
2023/10/19 15:01:26;;;;;;;18.27;14.77;;;;;;;;;;10049045;28;20553;-70
2023/10/19 15:06:18;;;;;;;22.02;15.80;;;;;;;;;;10031873;28;20060;-70
2023/10/19 15:11:10;;;;;;;23.05;15.05;;;;;;;;;;10037920;28;20100;-68
2023/10/19 15:16:09;;;;;;;19.13;14.57;;;;;;;;;;10050656;28;20187;-69
2023/10/19 15:21:09;;;;;;;;;;;;;;;;;;10048757;28;20045;-68
2023/10/19 15:26:01;;;;;;;18.40;13.65;;;;;;;;;;10049046;28;19925;-70
2023/10/19 15:30:54;;;;;;;19.60;14.90;;;;;;;;;;10040327;28;20049;-70
2023/10/19 15:35:47;;;;;;;17.50;13.80;;;;;;;;;;10038582;28;20053;-68
2023/10/19 15:40:40;;;;;;;20.67;15.50;;;;;;;;;;10043318;28;20077;-70
2023/10/19 15:45:34;;;;;;;26.90;20.15;;;;;;;;;;10044909;28;20049;-70
2023/10/19 15:50:28;;;;;;;26.10;18.02;;;;;;;;;;10039608;28;20084;-68
2023/10/19 15:55:22;;;;;;;23.88;17.02;;;;;;;;;;10039655;28;20423;-70
2023/10/19 16:00:15;;;;;;;22.70;16.30;;;;;;;;;;10040025;28;20038;-69
2023/10/19 16:05:08;;;;;;;30.33;19.02;;;;;;;;;;10038365;28;20154;-68
2023/10/19 16:09:59;;;;;;;31.08;22.25;;;;;;;;;;10040991;28;20056;-68
2023/10/19 16:14:51;;;;;;;39.60;27.30;;;;;;;;;;10044120;28;20136;-67
2023/10/19 16:19:43;;;;;;;39.42;26.13;;;;;;;;;;10037670;28;20041;-67
2023/10/19 16:24:35;;;;;;;40.80;26.92;;;;;;;;;;10043773;28;20034;-69
2023/10/19 16:29:27;;;;;;;32.33;22.05;;;;;;;;;;10052897;28;20463;-67
2023/10/19 16:34:19;;;;;;;33.58;24.48;;;;;;;;;;10050852;28;20038;-70
2023/10/19 16:39:16;;;;;;;39.40;26.83;;;;;;;;;;10038403;28;20068;-70
2023/10/19 16:44:07;;;;;;;35.33;25.38;;;;;;;;;;10045216;28;20056;-69
2023/10/19 16:49:00;;;;;;;39.58;24.77;;;;;;;;;;10030864;28;20053;-68
2023/10/19 16:53:52;;;;;;;39.92;29.15;;;;;;;;;;10034652;28;20108;-70
2023/10/19 16:58:44;;;;;;;40.95;29.05;;;;;;;;;;10038964;28;20511;-67
2023/10/19 17:03:40;;;;;;;39.88;28.15;;;;;;;;;;10037557;28;20104;-69
2023/10/19 17:08:33;;;;;;;42.58;29.42;;;;;;;;;;10038547;28;20148;-68
2023/10/19 17:13:26;;;;;;;45.65;30.15;;;;;;;;;;10040250;28;20052;-68
2023/10/19 17:18:18;;;;;;;46.85;29.73;;;;;;;;;;10045772;28;20061;-68
2023/10/19 17:23:10;;;;;;;41.33;31.10;;;;;;;;;;10075388;28;20092;-67
2023/10/19 17:28:02;;;;;;;45.58;31.50;;;;;;;;;;10070736;28;20049;-69
2023/10/19 17:32:54;;;;;;;50.22;32.63;;;;;;;;;;10073380;28;20463;-68
2023/10/19 17:37:53;;;;;;;57.35;39.30;;;;;;;;;;10077305;28;20072;-69
2023/10/19 17:42:45;;;;;;;55.45;38.25;;;;;;;;;;10077935;28;20392;-68
2023/10/19 17:47:37;;;;;;;58.13;40.33;;;;;;;;;;10075405;28;20537;-68
2023/10/19 17:52:29;;;;;;;51.80;37.00;;;;;;;;;;10067141;28;20046;-68
2023/10/19 17:57:22;;;;;;;51.88;36.22;;;;;;;;;;10075075;28;20965;-69
2023/10/19 18:02:16;;;;;;;55.28;38.42;;;;;;;;;;10075670;28;20089;-68
2023/10/19 18:07:09;;;;;;;50.42;36.75;;;;;;;;;;10074491;28;20081;-68
2023/10/19 18:12:01;;;;;;;57.58;37.05;;;;;;;;;;10072847;28;20383;-69
2023/10/19 18:16:53;;;;;;;52.78;35.00;;;;;;;;;;10073790;28;20499;-68
2023/10/19 18:21:45;;;;;;;55.72;38.05;;;;;;;;;;10070503;28;20041;-72
2023/10/19 18:26:39;;;;;;;57.60;36.08;;;;;;;;;;10081669;28;20053;-72
2023/10/19 18:31:32;;;;;;;76.88;49.00;;;;;;;;;;10048954;28;20128;-73
2023/10/19 18:36:35;;;;;;;79.38;47.58;;;;;;;;;;10044036;28;20077;-73
2023/10/19 18:41:31;;;;;;;88.25;50.42;;;;;;;;;;10067773;28;20100;-73
2023/10/19 18:46:24;;;;;;;86.35;49.65;;;;;;;;;;10060823;28;20057;-70
2023/10/19 18:51:16;;;;;;;75.82;41.88;;;;;;;;;;10062310;28;20069;-71
2023/10/19 18:56:08;;;;;;;69.22;37.85;;;;;;;;;;10059613;28;20484;-71
2023/10/19 19:01:04;;;;;;;61.72;34.65;;;;;;;;;;10054390;28;20083;-71
2023/10/19 19:05:57;;;;;;;52.60;32.78;;;;;;;;;;10066774;28;20468;-70
2023/10/19 19:10:49;;;;;;;53.67;28.83;;;;;;;;;;10067859;28;20054;-71
2023/10/19 19:15:41;;;;;;;56.28;25.98;;;;;;;;;;10059433;28;20045;-71
2023/10/19 19:20:33;;;;;;;46.15;25.95;;;;;;;;;;10067660;28;20045;-71
2023/10/19 19:25:25;;;;;;;51.45;26.83;;;;;;;;;;10067456;28;20042;-71
2023/10/19 19:30:18;;;;;;;47.92;26.75;;;;;;;;;;10067415;28;20060;-71
2023/10/19 19:35:11;;;;;;;56.35;27.42;;;;;;;;;;10065803;28;20479;-70
2023/10/19 19:40:12;;;;;;;56.72;29.85;;;;;;;;;;10067144;28;20352;-71
2023/10/19 19:45:04;;;;;;;43.88;25.83;;;;;;;;;;10066976;28;20048;-71
2023/10/19 19:49:56;;;;;;;54.35;28.73;;;;;;;;;;10066764;28;20041;-71
2023/10/19 19:54:48;;;;;;;42.05;29.38;;;;;;;;;;10066234;28;20037;-68
2023/10/19 19:59:40;;;;;;;53.03;29.70;;;;;;;;;;10066524;28;20388;-71
2023/10/19 20:04:32;;;;;;;54.70;29.35;;;;;;;;;;10065627;28;20050;-73
2023/10/19 20:09:25;;;;;;;52.30;28.20;;;;;;;;;;10066322;28;20125;-71
2023/10/19 20:14:17;;;;;;;55.53;31.23;;;;;;;;;;10064998;28;20413;-70
2023/10/19 20:19:09;;;;;;;55.15;32.25;;;;;;;;;;10063774;28;20099;-72
2023/10/19 20:24:03;;;;;;;70.18;34.17;;;;;;;;;;10062338;28;20068;-72
2023/10/19 20:28:55;;;;;;;49.67;27.98;;;;;;;;;;10062492;28;20049;-71
2023/10/19 20:33:47;;;;;;;53.15;30.45;;;;;;;;;;10061475;28;20049;-71
2023/10/19 20:38:39;;;;;;;52.08;31.63;;;;;;;;;;10061092;28;20069;-71
2023/10/19 20:43:31;;;;;;;54.00;31.63;;;;;;;;;;10060997;28;20042;-72
2023/10/19 20:48:23;;;;;;;47.00;27.98;;;;;;;;;;10064375;28;20072;-72
2023/10/19 20:53:16;;;;;;;49.53;28.55;;;;;;;;;;10063946;28;20401;-71
2023/10/19 20:58:11;;;;;;;54.70;29.17;;;;;;;;;;10065307;28;20045;-71
2023/10/19 21:03:03;;;;;;;58.38;29.65;;;;;;;;;;10064544;28;20049;-72
2023/10/19 21:07:55;;;;;;;68.07;32.53;;;;;;;;;;10064272;28;20064;-71
2023/10/19 21:12:47;;;;;;;57.10;29.98;;;;;;;;;;10063901;28;20057;-70
2023/10/19 21:17:43;;;;;;;49.53;28.58;;;;;;;;;;10062391;28;20071;-71
2023/10/19 21:22:35;;;;;;;59.55;33.75;;;;;;;;;;10063794;28;20424;-72
2023/10/19 21:27:27;;;;;;;55.83;29.77;;;;;;;;;;10062567;28;20084;-71
2023/10/19 21:32:20;;;;;;;68.28;32.15;;;;;;;;;;10063950;28;20099;-72
2023/10/19 21:37:12;;;;;;;54.13;31.83;;;;;;;;;;10064010;28;20541;-71
2023/10/19 21:42:04;;;;;;;62.28;33.30;;;;;;;;;;10063878;28;20075;-71
2023/10/19 21:46:56;;;;;;;59.83;30.58;;;;;;;;;;10064108;28;20057;-71
2023/10/19 21:51:48;;;;;;;78.22;36.42;;;;;;;;;;10063693;28;20037;-69
2023/10/19 21:56:40;;;;;;;72.75;35.45;;;;;;;;;;10064411;28;20071;-70
2023/10/19 22:01:31;;;;;;;53.80;27.88;;;;;;;;;;10062147;28;20056;-71
2023/10/19 22:06:23;;;;;;;60.33;28.85;;;;;;;;;;10068874;28;20139;-71
2023/10/19 22:11:15;;;;;;;60.75;30.05;;;;;;;;;;10070850;28;20474;-71
2023/10/19 22:16:07;;;;;;;73.53;33.33;;;;;;;;;;10070649;28;20037;-71
2023/10/19 22:21:00;;;;;;;64.35;32.13;;;;;;;;;;10070086;28;20046;-71
2023/10/19 22:25:52;;;;;;;65.30;34.88;;;;;;;;;;10070648;28;20049;-71
2023/10/19 22:30:43;;;;;;;101.20;41.15;;;;;;;;;;10068567;28;20046;-71
2023/10/19 22:35:38;;;;;;;101.07;43.67;;;;;;;;;;10033131;28;20452;-70
2023/10/19 22:40:30;;;;;;;94.82;45.63;;;;;;;;;;10033599;28;20553;-71
2023/10/19 22:45:22;;;;;;;91.45;43.13;;;;;;;;;;10032103;28;20460;-70
2023/10/19 22:50:16;;;;;;;66.63;32.17;;;;;;;;;;10031663;28;20056;-71
2023/10/19 22:55:12;;;;;;;87.45;36.38;;;;;;;;;;10031308;28;20721;-71
2023/10/19 23:00:10;;;;;;;96.03;39.35;;;;;;;;;;10031754;28;20038;-71
2023/10/19 23:05:02;;;;;;;95.18;39.42;;;;;;;;;;10031079;28;20372;-71
2023/10/19 23:09:55;;;;;;;98.28;41.33;;;;;;;;;;10031805;28;20049;-72
2023/10/19 23:14:47;;;;;;;108.60;42.58;;;;;;;;;;10028965;28;20455;-70
2023/10/19 23:19:41;;;;;;;124.63;52.22;;;;;;;;;;10031087;28;20038;-71
2023/10/19 23:24:33;;;;;;;95.72;44.53;;;;;;;;;;10048325;28;20158;-71
2023/10/19 23:29:28;;;;;;;92.85;44.28;;;;;;;;;;10049434;28;20129;-71
2023/10/19 23:34:21;;;;;;;149.57;51.85;;;;;;;;;;10030371;28;20506;-71
2023/10/19 23:39:21;;;;;;;121.85;50.08;;;;;;;;;;10031126;28;20140;-71
2023/10/19 23:44:13;;;;;;;131.85;51.55;;;;;;;;;;10031025;28;20046;-71
2023/10/19 23:49:05;;;;;;;97.75;40.70;;;;;;;;;;10029299;28;20045;-72
2023/10/19 23:53:57;;;;;;;110.43;39.55;;;;;;;;;;10030266;28;20128;-71
2023/10/19 23:58:49;;;;;;;90.20;36.90;;;;;;;;;;10029597;28;20046;-70
